KLRF/LRF METAR and TAF weather

Enter ICAO airport designator
Station Type Date Time Source
KLRF METAR 2019/02/17 07:35 UTC NOAA

KLRF 170735Z AUTO 33005KT 2 1/2SM -UP BR OVC003 02/02 A2977 RMK AO2 UPB05 CIG 002 RWY25 SLP086


Station Type Date Time Source
KLRF Decoded METAR 2019/02/17 07:35 UTC NOAA

Little Rock Air Force Base, AR, United States (KLRF) 34-55N 092-09W
Feb 17, 2019 - 02:35 AM EST / 2019.02.17 0735 UTC
Wind: from the NNW (330 degrees) at 6 MPH (5 KT):0
Visibility: 2 1/2 mile(s):0
Sky conditions: overcast
Weather: light precipitation; mist
Temperature: 35 F (2 C)
Windchill: 30 F (-1 C):1
Dew Point: 35 F (2 C)
Relative Humidity: 100%
Pressure (altimeter): 29.77 in. Hg (1008 hPa)
ob: KLRF 170735Z AUTO 33005KT 2 1/2SM -UP BR OVC003 02/02 A2977 RMK AO2 UPB05 CIG 002 RWY25 SLP086
cycle: 7

Station Type Date Time Source
KLRF TAF 2019/02/17 07:09 UTC NOAA

TAF TAF KLRF 170700Z 1707/1813 30006KT 3200 BR OVC003 QNH2970INS
BECMG 1709/1710 33006KT 4800 -SHRA OVC005 QNH2975INS
BECMG 1717/1718 33010G15KT 9999 NSW OVC015 QNH2982INS
BECMG 1723/1724 36006KT 9999 SCT015 BKN200 QNH2987INS
BECMG 1811/1812 36009KT 9999 SKC QNH2994INS TX10/1720Z TN01/1712Z


Example: see airport list